sensor_id;sensor_type;location;lat;lon;timestamp;temperature;humidity
14771;DHT22;7477;45.222;5.688;2023-04-28T00:01:47;16.60;95.10
14771;DHT22;7477;45.222;5.688;2023-04-28T00:05:07;16.60;95.10
14771;DHT22;7477;45.222;5.688;2023-04-28T00:08:27;16.70;95.10
14771;DHT22;7477;45.222;5.688;2023-04-28T00:11:46;16.70;95.20
14771;DHT22;7477;45.222;5.688;2023-04-28T00:15:06;16.60;95.30
14771;DHT22;7477;45.222;5.688;2023-04-28T00:18:25;16.60;95.10
14771;DHT22;7477;45.222;5.688;2023-04-28T00:21:45;16.60;95.20
14771;DHT22;7477;45.222;5.688;2023-04-28T00:25:05;16.60;95.10
14771;DHT22;7477;45.222;5.688;2023-04-28T00:28:25;16.60;95.10
14771;DHT22;7477;45.222;5.688;2023-04-28T00:31:44;16.60;94.90
14771;DHT22;7477;45.222;5.688;2023-04-28T00:35:04;16.60;95.30
14771;DHT22;7477;45.222;5.688;2023-04-28T00:38:24;16.50;95.50
14771;DHT22;7477;45.222;5.688;2023-04-28T00:41:43;16.50;95.80
14771;DHT22;7477;45.222;5.688;2023-04-28T00:45:02;16.50;96.10
14771;DHT22;7477;45.222;5.688;2023-04-28T00:48:24;16.40;96.20
14771;DHT22;7477;45.222;5.688;2023-04-28T00:51:44;16.40;96.50
14771;DHT22;7477;45.222;5.688;2023-04-28T00:55:04;16.40;96.70
14771;DHT22;7477;45.222;5.688;2023-04-28T00:58:24;16.30;96.80
14771;DHT22;7477;45.222;5.688;2023-04-28T01:01:43;16.30;97.20
14771;DHT22;7477;45.222;5.688;2023-04-28T01:05:02;16.20;97.20
14771;DHT22;7477;45.222;5.688;2023-04-28T01:08:29;16.20;97.40
14771;DHT22;7477;45.222;5.688;2023-04-28T01:11:49;16.10;97.60
14771;DHT22;7477;45.222;5.688;2023-04-28T01:15:16;16.10;97.60
14771;DHT22;7477;45.222;5.688;2023-04-28T01:18:36;16.10;97.60
14771;DHT22;7477;45.222;5.688;2023-04-28T01:21:56;16.10;97.80
14771;DHT22;7477;45.222;5.688;2023-04-28T01:25:15;16.00;98.00
14771;DHT22;7477;45.222;5.688;2023-04-28T01:28:34;15.90;98.10
14771;DHT22;7477;45.222;5.688;2023-04-28T01:31:53;15.90;98.30
14771;DHT22;7477;45.222;5.688;2023-04-28T01:35:13;15.80;98.60
14771;DHT22;7477;45.222;5.688;2023-04-28T01:38:33;15.70;98.60
14771;DHT22;7477;45.222;5.688;2023-04-28T01:41:53;15.80;98.70
14771;DHT22;7477;45.222;5.688;2023-04-28T01:45:12;15.70;98.80
14771;DHT22;7477;45.222;5.688;2023-04-28T01:48:31;15.60;99.00
14771;DHT22;7477;45.222;5.688;2023-04-28T01:51:50;15.60;99.30
14771;DHT22;7477;45.222;5.688;2023-04-28T01:55:09;15.60;99.20
14771;DHT22;7477;45.222;5.688;2023-04-28T01:58:29;15.60;99.40
14771;DHT22;7477;45.222;5.688;2023-04-28T02:01:48;15.50;99.60
14771;DHT22;7477;45.222;5.688;2023-04-28T02:05:07;15.40;99.90
14771;DHT22;7477;45.222;5.688;2023-04-28T02:08:27;15.40;99.90
14771;DHT22;7477;45.222;5.688;2023-04-28T02:11:46;15.40;99.90
14771;DHT22;7477;45.222;5.688;2023-04-28T02:15:05;15.40;99.90
14771;DHT22;7477;45.222;5.688;2023-04-28T02:18:25;15.30;99.90
14771;DHT22;7477;45.222;5.688;2023-04-28T02:21:44;15.20;99.90
14771;DHT22;7477;45.222;5.688;2023-04-28T02:25:04;15.20;99.90
14771;DHT22;7477;45.222;5.688;2023-04-28T02:28:23;15.20;99.90
14771;DHT22;7477;45.222;5.688;2023-04-28T02:31:43;15.30;99.90
14771;DHT22;7477;45.222;5.688;2023-04-28T02:35:03;15.20;99.90
14771;DHT22;7477;45.222;5.688;2023-04-28T02:38:23;15.10;99.90
14771;DHT22;7477;45.222;5.688;2023-04-28T02:41:42;15.10;99.90
14771;DHT22;7477;45.222;5.688;2023-04-28T02:45:01;15.10;99.90
14771;DHT22;7477;45.222;5.688;2023-04-28T02:48:20;15.00;99.90
14771;DHT22;7477;45.222;5.688;2023-04-28T02:51:41;14.90;99.90
14771;DHT22;7477;45.222;5.688;2023-04-28T02:55:00;14.80;99.90
14771;DHT22;7477;45.222;5.688;2023-04-28T02:58:21;14.90;99.90
14771;DHT22;7477;45.222;5.688;2023-04-28T03:01:40;14.80;99.90
14771;DHT22;7477;45.222;5.688;2023-04-28T03:05:00;14.70;99.90
14771;DHT22;7477;45.222;5.688;2023-04-28T03:08:19;14.70;99.90
14771;DHT22;7477;45.222;5.688;2023-04-28T03:11:39;14.80;99.90
14771;DHT22;7477;45.222;5.688;2023-04-28T03:14:59;14.70;99.90
14771;DHT22;7477;45.222;5.688;2023-04-28T03:18:19;14.70;99.90
14771;DHT22;7477;45.222;5.688;2023-04-28T03:21:38;14.70;99.90
14771;DHT22;7477;45.222;5.688;2023-04-28T03:24:58;14.70;99.90
14771;DHT22;7477;45.222;5.688;2023-04-28T03:28:17;14.70;99.90
14771;DHT22;7477;45.222;5.688;2023-04-28T03:31:36;14.60;99.90
14771;DHT22;7477;45.222;5.688;2023-04-28T03:34:56;14.50;99.90
14771;DHT22;7477;45.222;5.688;2023-04-28T03:38:15;14.50;99.90
14771;DHT22;7477;45.222;5.688;2023-04-28T03:41:34;14.50;99.90
14771;DHT22;7477;45.222;5.688;2023-04-28T03:44:54;14.40;99.90
14771;DHT22;7477;45.222;5.688;2023-04-28T03:48:13;14.50;99.90
14771;DHT22;7477;45.222;5.688;2023-04-28T03:51:32;14.40;99.90
14771;DHT22;7477;45.222;5.688;2023-04-28T03:54:52;14.40;99.90
14771;DHT22;7477;45.222;5.688;2023-04-28T03:58:11;14.40;99.90
14771;DHT22;7477;45.222;5.688;2023-04-28T04:01:30;14.50;99.90
14771;DHT22;7477;45.222;5.688;2023-04-28T04:04:49;14.50;99.90
14771;DHT22;7477;45.222;5.688;2023-04-28T04:08:09;14.50;99.90
14771;DHT22;7477;45.222;5.688;2023-04-28T04:11:28;14.50;99.90
14771;DHT22;7477;45.222;5.688;2023-04-28T04:14:48;14.50;99.90
14771;DHT22;7477;45.222;5.688;2023-04-28T04:18:07;14.50;99.90
14771;DHT22;7477;45.222;5.688;2023-04-28T04:21:26;14.50;99.90
14771;DHT22;7477;45.222;5.688;2023-04-28T04:24:46;14.50;99.90
14771;DHT22;7477;45.222;5.688;2023-04-28T04:28:05;14.50;99.90
14771;DHT22;7477;45.222;5.688;2023-04-28T04:31:25;14.50;99.90
14771;DHT22;7477;45.222;5.688;2023-04-28T04:34:44;14.60;99.90
14771;DHT22;7477;45.222;5.688;2023-04-28T04:38:04;14.50;99.90
14771;DHT22;7477;45.222;5.688;2023-04-28T04:41:25;14.50;99.90
14771;DHT22;7477;45.222;5.688;2023-04-28T04:44:44;14.40;99.90
14771;DHT22;7477;45.222;5.688;2023-04-28T04:48:03;14.30;99.90
14771;DHT22;7477;45.222;5.688;2023-04-28T04:51:23;14.30;99.90
14771;DHT22;7477;45.222;5.688;2023-04-28T04:54:42;14.40;99.90
14771;DHT22;7477;45.222;5.688;2023-04-28T04:58:02;14.40;99.90
14771;DHT22;7477;45.222;5.688;2023-04-28T05:01:21;14.30;99.90
14771;DHT22;7477;45.222;5.688;2023-04-28T05:04:40;14.40;99.90
14771;DHT22;7477;45.222;5.688;2023-04-28T05:07:59;14.40;99.90
14771;DHT22;7477;45.222;5.688;2023-04-28T05:11:18;14.50;99.90
14771;DHT22;7477;45.222;5.688;2023-04-28T05:14:38;14.50;99.90
14771;DHT22;7477;45.222;5.688;2023-04-28T05:17:57;14.40;99.90
14771;DHT22;7477;45.222;5.688;2023-04-28T05:21:16;14.50;99.90
14771;DHT22;7477;45.222;5.688;2023-04-28T05:24:35;14.50;99.90
14771;DHT22;7477;45.222;5.688;2023-04-28T05:27:55;14.60;99.90
14771;DHT22;7477;45.222;5.688;2023-04-28T05:31:15;14.60;99.90
14771;DHT22;7477;45.222;5.688;2023-04-28T05:34:34;14.60;99.90
14771;DHT22;7477;45.222;5.688;2023-04-28T05:37:54;14.70;99.90
14771;DHT22;7477;45.222;5.688;2023-04-28T05:41:13;14.70;99.90
14771;DHT22;7477;45.222;5.688;2023-04-28T05:44:32;14.80;99.90
14771;DHT22;7477;45.222;5.688;2023-04-28T05:47:51;14.80;99.90
14771;DHT22;7477;45.222;5.688;2023-04-28T05:51:10;14.80;99.90
14771;DHT22;7477;45.222;5.688;2023-04-28T05:54:29;14.90;99.90
14771;DHT22;7477;45.222;5.688;2023-04-28T05:57:48;14.90;99.90
14771;DHT22;7477;45.222;5.688;2023-04-28T06:01:07;14.80;99.90
14771;DHT22;7477;45.222;5.688;2023-04-28T06:04:26;14.90;99.90
14771;DHT22;7477;45.222;5.688;2023-04-28T06:07:45;14.80;99.90
14771;DHT22;7477;45.222;5.688;2023-04-28T06:11:05;14.80;99.90
14771;DHT22;7477;45.222;5.688;2023-04-28T06:14:25;14.80;99.90
14771;DHT22;7477;45.222;5.688;2023-04-28T06:17:45;14.80;99.90
14771;DHT22;7477;45.222;5.688;2023-04-28T06:21:04;14.80;99.90
14771;DHT22;7477;45.222;5.688;2023-04-28T06:24:24;14.70;99.90
14771;DHT22;7477;45.222;5.688;2023-04-28T06:27:43;14.70;99.90
14771;DHT22;7477;45.222;5.688;2023-04-28T06:31:02;14.70;99.90
14771;DHT22;7477;45.222;5.688;2023-04-28T06:34:24;14.70;99.90
14771;DHT22;7477;45.222;5.688;2023-04-28T06:37:46;14.70;99.90
14771;DHT22;7477;45.222;5.688;2023-04-28T06:41:05;14.80;99.90
14771;DHT22;7477;45.222;5.688;2023-04-28T06:44:25;14.80;99.90
14771;DHT22;7477;45.222;5.688;2023-04-28T06:47:44;14.90;99.90
14771;DHT22;7477;45.222;5.688;2023-04-28T06:51:04;14.90;99.90
14771;DHT22;7477;45.222;5.688;2023-04-28T06:54:23;15.00;99.90
14771;DHT22;7477;45.222;5.688;2023-04-28T06:57:43;15.00;99.90
14771;DHT22;7477;45.222;5.688;2023-04-28T07:01:02;15.00;99.90
14771;DHT22;7477;45.222;5.688;2023-04-28T07:04:22;15.00;99.90
14771;DHT22;7477;45.222;5.688;2023-04-28T07:07:41;15.00;99.90
14771;DHT22;7477;45.222;5.688;2023-04-28T07:11:03;15.10;99.90
14771;DHT22;7477;45.222;5.688;2023-04-28T07:14:22;15.10;99.90
14771;DHT22;7477;45.222;5.688;2023-04-28T07:17:41;15.20;99.90
14771;DHT22;7477;45.222;5.688;2023-04-28T07:21:01;15.20;99.90
14771;DHT22;7477;45.222;5.688;2023-04-28T07:24:20;15.30;99.90
14771;DHT22;7477;45.222;5.688;2023-04-28T07:27:41;15.30;99.90
14771;DHT22;7477;45.222;5.688;2023-04-28T07:31:00;15.40;99.90
14771;DHT22;7477;45.222;5.688;2023-04-28T07:34:20;15.50;99.90
14771;DHT22;7477;45.222;5.688;2023-04-28T07:37:41;15.50;99.90
14771;DHT22;7477;45.222;5.688;2023-04-28T07:41:02;15.60;99.90
14771;DHT22;7477;45.222;5.688;2023-04-28T07:44:22;15.70;99.90
14771;DHT22;7477;45.222;5.688;2023-04-28T07:47:41;15.80;99.90
14771;DHT22;7477;45.222;5.688;2023-04-28T07:51:01;15.90;99.90
14771;DHT22;7477;45.222;5.688;2023-04-28T07:54:20;16.00;99.90
14771;DHT22;7477;45.222;5.688;2023-04-28T07:57:40;16.00;99.90
14771;DHT22;7477;45.222;5.688;2023-04-28T08:01:00;16.00;99.90
14771;DHT22;7477;45.222;5.688;2023-04-28T08:04:19;16.00;99.90
14771;DHT22;7477;45.222;5.688;2023-04-28T08:07:38;16.00;99.90
14771;DHT22;7477;45.222;5.688;2023-04-28T08:10:57;16.10;99.90
14771;DHT22;7477;45.222;5.688;2023-04-28T08:14:18;16.10;99.90
14771;DHT22;7477;45.222;5.688;2023-04-28T08:17:38;16.20;99.90
14771;DHT22;7477;45.222;5.688;2023-04-28T08:20:57;16.40;99.90
14771;DHT22;7477;45.222;5.688;2023-04-28T08:24:17;16.60;99.90
14771;DHT22;7477;45.222;5.688;2023-04-28T08:27:36;16.50;99.90
14771;DHT22;7477;45.222;5.688;2023-04-28T08:30:57;16.60;99.90
14771;DHT22;7477;45.222;5.688;2023-04-28T08:34:16;16.80;99.90
14771;DHT22;7477;45.222;5.688;2023-04-28T08:37:35;17.00;99.90
14771;DHT22;7477;45.222;5.688;2023-04-28T08:40:55;17.20;99.90
14771;DHT22;7477;45.222;5.688;2023-04-28T08:44:14;17.30;99.90
14771;DHT22;7477;45.222;5.688;2023-04-28T08:47:35;17.40;99.90
14771;DHT22;7477;45.222;5.688;2023-04-28T08:50:57;17.50;99.90
14771;DHT22;7477;45.222;5.688;2023-04-28T08:54:17;17.50;99.90
14771;DHT22;7477;45.222;5.688;2023-04-28T08:57:42;17.40;99.90
14771;DHT22;7477;45.222;5.688;2023-04-28T09:01:02;17.60;99.90
14771;DHT22;7477;45.222;5.688;2023-04-28T09:04:22;18.10;99.90
14771;DHT22;7477;45.222;5.688;2023-04-28T09:07:44;18.10;99.90
14771;DHT22;7477;45.222;5.688;2023-04-28T09:11:05;18.30;99.90
14771;DHT22;7477;45.222;5.688;2023-04-28T09:14:27;18.50;99.90
14771;DHT22;7477;45.222;5.688;2023-04-28T09:17:50;18.50;99.90
14771;DHT22;7477;45.222;5.688;2023-04-28T09:21:10;18.60;99.60
14771;DHT22;7477;45.222;5.688;2023-04-28T09:24:32;18.60;99.90
14771;DHT22;7477;45.222;5.688;2023-04-28T09:27:52;18.90;99.30
14771;DHT22;7477;45.222;5.688;2023-04-28T09:31:22;19.00;99.10
14771;DHT22;7477;45.222;5.688;2023-04-28T09:34:49;19.10;98.90
14771;DHT22;7477;45.222;5.688;2023-04-28T09:38:09;19.20;98.70
14771;DHT22;7477;45.222;5.688;2023-04-28T09:41:38;19.20;98.40
14771;DHT22;7477;45.222;5.688;2023-04-28T09:44:59;19.10;99.00
14771;DHT22;7477;45.222;5.688;2023-04-28T09:48:33;19.20;98.80
14771;DHT22;7477;45.222;5.688;2023-04-28T09:51:53;19.20;98.40
14771;DHT22;7477;45.222;5.688;2023-04-28T09:55:13;19.10;98.60
14771;DHT22;7477;45.222;5.688;2023-04-28T09:58:33;19.00;98.80
14771;DHT22;7477;45.222;5.688;2023-04-28T10:01:58;19.00;98.50
14771;DHT22;7477;45.222;5.688;2023-04-28T10:05:18;19.00;98.40
14771;DHT22;7477;45.222;5.688;2023-04-28T10:08:38;19.00;99.50
14771;DHT22;7477;45.222;5.688;2023-04-28T10:11:58;19.30;98.80
14771;DHT22;7477;45.222;5.688;2023-04-28T10:15:18;19.50;98.50
14771;DHT22;7477;45.222;5.688;2023-04-28T10:18:39;19.50;98.40
14771;DHT22;7477;45.222;5.688;2023-04-28T10:25:54;19.80;98.20
14771;DHT22;7477;45.222;5.688;2023-04-28T10:29:15;19.90;98.10
14771;DHT22;7477;45.222;5.688;2023-04-28T10:32:35;19.90;98.60
14771;DHT22;7477;45.222;5.688;2023-04-28T10:35:54;19.90;98.20
14771;DHT22;7477;45.222;5.688;2023-04-28T10:39:14;19.90;98.50
14771;DHT22;7477;45.222;5.688;2023-04-28T10:42:52;19.80;98.70
14771;DHT22;7477;45.222;5.688;2023-04-28T10:46:12;19.90;99.30
14771;DHT22;7477;45.222;5.688;2023-04-28T10:53:15;20.20;99.00
14771;DHT22;7477;45.222;5.688;2023-04-28T10:56:35;20.60;98.40
14771;DHT22;7477;45.222;5.688;2023-04-28T11:00:27;20.50;98.40
14771;DHT22;7477;45.222;5.688;2023-04-28T11:07:10;20.70;97.90
14771;DHT22;7477;45.222;5.688;2023-04-28T11:17:52;20.80;97.80
14771;DHT22;7477;45.222;5.688;2023-04-28T11:21:14;20.80;97.70
14771;DHT22;7477;45.222;5.688;2023-04-28T11:24:34;20.70;98.00
14771;DHT22;7477;45.222;5.688;2023-04-28T11:28:02;21.00;97.60
14771;DHT22;7477;45.222;5.688;2023-04-28T11:31:24;21.00;97.40
14771;DHT22;7477;45.222;5.688;2023-04-28T11:34:50;21.00;97.60
14771;DHT22;7477;45.222;5.688;2023-04-28T11:38:10;21.20;97.60
14771;DHT22;7477;45.222;5.688;2023-04-28T11:41:29;21.10;97.60
14771;DHT22;7477;45.222;5.688;2023-04-28T11:44:50;21.20;97.70
14771;DHT22;7477;45.222;5.688;2023-04-28T11:48:20;21.40;97.20
14771;DHT22;7477;45.222;5.688;2023-04-28T11:51:40;21.30;97.30
14771;DHT22;7477;45.222;5.688;2023-04-28T11:55:00;21.40;97.70
14771;DHT22;7477;45.222;5.688;2023-04-28T11:58:21;21.50;97.40
14771;DHT22;7477;45.222;5.688;2023-04-28T12:01:49;21.60;97.20
14771;DHT22;7477;45.222;5.688;2023-04-28T12:05:10;21.50;97.60
14771;DHT22;7477;45.222;5.688;2023-04-28T12:08:29;21.60;97.40
14771;DHT22;7477;45.222;5.688;2023-04-28T12:11:59;21.60;97.30
14771;DHT22;7477;45.222;5.688;2023-04-28T12:15:20;21.50;97.60
14771;DHT22;7477;45.222;5.688;2023-04-28T12:18:57;21.70;97.30
14771;DHT22;7477;45.222;5.688;2023-04-28T12:22:17;21.90;96.90
14771;DHT22;7477;45.222;5.688;2023-04-28T12:25:44;20.30;98.00
14771;DHT22;7477;45.222;5.688;2023-04-28T12:29:03;19.70;98.90
14771;DHT22;7477;45.222;5.688;2023-04-28T12:32:40;20.10;99.80
14771;DHT22;7477;45.222;5.688;2023-04-28T12:36:01;21.50;98.40
14771;DHT22;7477;45.222;5.688;2023-04-28T12:39:20;22.00;97.30
14771;DHT22;7477;45.222;5.688;2023-04-28T12:42:41;22.10;97.20
14771;DHT22;7477;45.222;5.688;2023-04-28T12:46:00;22.00;97.70
14771;DHT22;7477;45.222;5.688;2023-04-28T12:49:19;22.20;97.10
14771;DHT22;7477;45.222;5.688;2023-04-28T12:52:39;21.90;97.20
14771;DHT22;7477;45.222;5.688;2023-04-28T12:55:59;21.70;98.00
14771;DHT22;7477;45.222;5.688;2023-04-28T12:59:18;22.00;97.90
14771;DHT22;7477;45.222;5.688;2023-04-28T13:02:38;22.00;98.40
14771;DHT22;7477;45.222;5.688;2023-04-28T13:05:58;22.50;97.00
14771;DHT22;7477;45.222;5.688;2023-04-28T13:09:17;22.50;96.90
14771;DHT22;7477;45.222;5.688;2023-04-28T13:12:36;22.30;97.70
14771;DHT22;7477;45.222;5.688;2023-04-28T13:15:55;22.80;96.50
14771;DHT22;7477;45.222;5.688;2023-04-28T13:19:14;22.80;97.10
14771;DHT22;7477;45.222;5.688;2023-04-28T13:22:33;23.00;96.40
14771;DHT22;7477;45.222;5.688;2023-04-28T13:25:52;22.90;95.90
14771;DHT22;7477;45.222;5.688;2023-04-28T13:29:11;22.40;96.40
14771;DHT22;7477;45.222;5.688;2023-04-28T13:32:32;22.10;97.20
14771;DHT22;7477;45.222;5.688;2023-04-28T13:35:51;22.20;96.90
14771;DHT22;7477;45.222;5.688;2023-04-28T13:39:11;22.20;96.90
14771;DHT22;7477;45.222;5.688;2023-04-28T13:42:32;22.00;97.10
14771;DHT22;7477;45.222;5.688;2023-04-28T13:45:52;22.10;97.30
14771;DHT22;7477;45.222;5.688;2023-04-28T13:49:12;22.30;97.40
14771;DHT22;7477;45.222;5.688;2023-04-28T13:52:31;22.40;97.00
14771;DHT22;7477;45.222;5.688;2023-04-28T13:55:50;22.30;97.20
14771;DHT22;7477;45.222;5.688;2023-04-28T13:59:12;22.20;97.00
14771;DHT22;7477;45.222;5.688;2023-04-28T14:02:31;22.00;97.00
14771;DHT22;7477;45.222;5.688;2023-04-28T14:05:52;22.10;96.80
14771;DHT22;7477;45.222;5.688;2023-04-28T14:09:11;22.20;97.10
14771;DHT22;7477;45.222;5.688;2023-04-28T14:12:31;22.20;97.00
14771;DHT22;7477;45.222;5.688;2023-04-28T14:15:51;22.30;96.70
14771;DHT22;7477;45.222;5.688;2023-04-28T14:19:11;22.10;96.90
14771;DHT22;7477;45.222;5.688;2023-04-28T14:22:35;21.90;97.10
14771;DHT22;7477;45.222;5.688;2023-04-28T14:25:54;21.90;97.20
14771;DHT22;7477;45.222;5.688;2023-04-28T14:29:16;22.20;97.10
14771;DHT22;7477;45.222;5.688;2023-04-28T14:32:36;22.30;96.80
14771;DHT22;7477;45.222;5.688;2023-04-28T14:35:56;22.20;97.20
14771;DHT22;7477;45.222;5.688;2023-04-28T14:39:15;22.50;96.80
14771;DHT22;7477;45.222;5.688;2023-04-28T14:42:35;21.80;97.00
14771;DHT22;7477;45.222;5.688;2023-04-28T14:45:55;22.00;96.80
14771;DHT22;7477;45.222;5.688;2023-04-28T14:49:14;21.90;97.00
14771;DHT22;7477;45.222;5.688;2023-04-28T14:52:33;21.90;97.00
14771;DHT22;7477;45.222;5.688;2023-04-28T14:55:52;21.80;96.90
14771;DHT22;7477;45.222;5.688;2023-04-28T14:59:12;22.00;97.30
14771;DHT22;7477;45.222;5.688;2023-04-28T15:02:32;22.20;97.10
14771;DHT22;7477;45.222;5.688;2023-04-28T15:05:51;22.30;97.10
14771;DHT22;7477;45.222;5.688;2023-04-28T15:09:11;22.30;96.90
14771;DHT22;7477;45.222;5.688;2023-04-28T15:12:30;22.20;96.70
14771;DHT22;7477;45.222;5.688;2023-04-28T15:15:50;22.00;97.00
14771;DHT22;7477;45.222;5.688;2023-04-28T15:19:09;21.90;96.90
14771;DHT22;7477;45.222;5.688;2023-04-28T15:22:29;22.00;97.30
14771;DHT22;7477;45.222;5.688;2023-04-28T15:25:49;22.00;97.20
14771;DHT22;7477;45.222;5.688;2023-04-28T15:29:11;22.30;97.00
14771;DHT22;7477;45.222;5.688;2023-04-28T15:32:30;22.30;96.80
14771;DHT22;7477;45.222;5.688;2023-04-28T15:35:50;22.40;96.60
14771;DHT22;7477;45.222;5.688;2023-04-28T15:39:09;22.40;96.60
14771;DHT22;7477;45.222;5.688;2023-04-28T15:42:28;22.40;96.80
14771;DHT22;7477;45.222;5.688;2023-04-28T15:45:48;22.50;96.80
14771;DHT22;7477;45.222;5.688;2023-04-28T15:49:07;22.40;96.70
14771;DHT22;7477;45.222;5.688;2023-04-28T15:52:28;22.40;96.60
14771;DHT22;7477;45.222;5.688;2023-04-28T15:55:48;22.40;96.60
14771;DHT22;7477;45.222;5.688;2023-04-28T15:59:08;22.40;96.40
14771;DHT22;7477;45.222;5.688;2023-04-28T16:02:32;22.40;96.60
14771;DHT22;7477;45.222;5.688;2023-04-28T16:05:54;22.40;96.40
14771;DHT22;7477;45.222;5.688;2023-04-28T16:09:14;22.40;96.40
14771;DHT22;7477;45.222;5.688;2023-04-28T16:12:34;22.40;96.40
14771;DHT22;7477;45.222;5.688;2023-04-28T16:15:53;22.50;96.50
14771;DHT22;7477;45.222;5.688;2023-04-28T16:19:12;22.50;96.50
14771;DHT22;7477;45.222;5.688;2023-04-28T16:22:34;22.50;96.10
14771;DHT22;7477;45.222;5.688;2023-04-28T16:25:54;22.50;96.10
14771;DHT22;7477;45.222;5.688;2023-04-28T16:29:13;22.40;95.90
14771;DHT22;7477;45.222;5.688;2023-04-28T16:32:33;22.40;96.10
14771;DHT22;7477;45.222;5.688;2023-04-28T16:35:56;22.40;96.20
14771;DHT22;7477;45.222;5.688;2023-04-28T16:39:17;22.30;96.40
14771;DHT22;7477;45.222;5.688;2023-04-28T16:42:38;22.30;96.10
14771;DHT22;7477;45.222;5.688;2023-04-28T16:45:57;22.30;96.10
14771;DHT22;7477;45.222;5.688;2023-04-28T16:49:17;22.30;96.20
14771;DHT22;7477;45.222;5.688;2023-04-28T16:52:37;22.20;96.00
14771;DHT22;7477;45.222;5.688;2023-04-28T16:55:56;22.20;96.20
14771;DHT22;7477;45.222;5.688;2023-04-28T16:59:15;22.20;95.90
14771;DHT22;7477;45.222;5.688;2023-04-28T17:02:35;22.10;96.10
14771;DHT22;7477;45.222;5.688;2023-04-28T17:05:54;22.10;96.00
14771;DHT22;7477;45.222;5.688;2023-04-28T17:09:14;22.10;96.00
14771;DHT22;7477;45.222;5.688;2023-04-28T17:12:33;22.10;96.00
14771;DHT22;7477;45.222;5.688;2023-04-28T17:15:53;22.10;96.00
14771;DHT22;7477;45.222;5.688;2023-04-28T17:19:13;22.00;96.20
14771;DHT22;7477;45.222;5.688;2023-04-28T17:22:33;22.00;95.90
14771;DHT22;7477;45.222;5.688;2023-04-28T17:25:53;22.00;96.10
14771;DHT22;7477;45.222;5.688;2023-04-28T17:29:12;21.90;96.20
14771;DHT22;7477;45.222;5.688;2023-04-28T17:32:31;21.90;96.40
14771;DHT22;7477;45.222;5.688;2023-04-28T17:35:51;21.90;96.30
14771;DHT22;7477;45.222;5.688;2023-04-28T17:39:11;21.80;96.50
14771;DHT22;7477;45.222;5.688;2023-04-28T17:42:31;21.70;96.70
14771;DHT22;7477;45.222;5.688;2023-04-28T17:45:51;21.70;96.70
14771;DHT22;7477;45.222;5.688;2023-04-28T17:49:14;21.70;96.80
14771;DHT22;7477;45.222;5.688;2023-04-28T17:52:37;21.60;96.90
14771;DHT22;7477;45.222;5.688;2023-04-28T17:55:58;21.60;97.00
14771;DHT22;7477;45.222;5.688;2023-04-28T17:59:20;21.50;97.10
14771;DHT22;7477;45.222;5.688;2023-04-28T18:02:40;21.50;97.00
14771;DHT22;7477;45.222;5.688;2023-04-28T18:05:59;21.40;97.00
14771;DHT22;7477;45.222;5.688;2023-04-28T18:09:19;21.40;97.10
14771;DHT22;7477;45.222;5.688;2023-04-28T18:12:39;21.30;97.10
14771;DHT22;7477;45.222;5.688;2023-04-28T18:15:59;21.30;97.20
14771;DHT22;7477;45.222;5.688;2023-04-28T18:19:18;21.30;97.30
14771;DHT22;7477;45.222;5.688;2023-04-28T18:22:37;21.30;97.40
14771;DHT22;7477;45.222;5.688;2023-04-28T18:25:57;21.20;97.60
14771;DHT22;7477;45.222;5.688;2023-04-28T18:29:17;21.10;97.60
14771;DHT22;7477;45.222;5.688;2023-04-28T18:32:37;21.10;97.90
14771;DHT22;7477;45.222;5.688;2023-04-28T18:36:03;21.10;98.10
14771;DHT22;7477;45.222;5.688;2023-04-28T18:39:24;21.10;98.40
14771;DHT22;7477;45.222;5.688;2023-04-28T18:42:44;21.10;98.70
14771;DHT22;7477;45.222;5.688;2023-04-28T18:46:03;21.00;99.30
14771;DHT22;7477;45.222;5.688;2023-04-28T18:49:24;21.00;99.90
14771;DHT22;7477;45.222;5.688;2023-04-28T18:52:45;20.90;99.90
14771;DHT22;7477;45.222;5.688;2023-04-28T18:56:05;20.90;99.90
14771;DHT22;7477;45.222;5.688;2023-04-28T18:59:24;20.90;99.90
14771;DHT22;7477;45.222;5.688;2023-04-28T19:02:46;20.90;99.90
14771;DHT22;7477;45.222;5.688;2023-04-28T19:06:05;20.80;99.90
14771;DHT22;7477;45.222;5.688;2023-04-28T19:09:24;20.70;99.90
14771;DHT22;7477;45.222;5.688;2023-04-28T19:12:44;20.70;99.90
14771;DHT22;7477;45.222;5.688;2023-04-28T19:16:04;20.70;99.90
14771;DHT22;7477;45.222;5.688;2023-04-28T19:19:23;20.60;99.90
14771;DHT22;7477;45.222;5.688;2023-04-28T19:22:43;20.60;99.90
14771;DHT22;7477;45.222;5.688;2023-04-28T19:26:04;20.50;99.90
14771;DHT22;7477;45.222;5.688;2023-04-28T19:29:24;20.50;99.90
14771;DHT22;7477;45.222;5.688;2023-04-28T19:32:43;20.40;99.90
14771;DHT22;7477;45.222;5.688;2023-04-28T19:36:05;20.40;99.90
14771;DHT22;7477;45.222;5.688;2023-04-28T19:39:24;20.50;99.90
14771;DHT22;7477;45.222;5.688;2023-04-28T19:42:43;20.90;98.80
14771;DHT22;7477;45.222;5.688;2023-04-28T19:46:03;21.00;99.50
14771;DHT22;7477;45.222;5.688;2023-04-28T19:49:22;20.50;99.90
14771;DHT22;7477;45.222;5.688;2023-04-28T19:52:41;20.30;99.90
14771;DHT22;7477;45.222;5.688;2023-04-28T19:56:00;20.20;99.90
14771;DHT22;7477;45.222;5.688;2023-04-28T19:59:20;19.70;99.90
14771;DHT22;7477;45.222;5.688;2023-04-28T20:02:39;19.20;99.90
14771;DHT22;7477;45.222;5.688;2023-04-28T20:06:00;19.00;99.90
14771;DHT22;7477;45.222;5.688;2023-04-28T20:09:19;19.00;99.90
14771;DHT22;7477;45.222;5.688;2023-04-28T20:12:39;18.90;99.90
14771;DHT22;7477;45.222;5.688;2023-04-28T20:15:58;18.70;99.90
14771;DHT22;7477;45.222;5.688;2023-04-28T20:19:18;19.00;99.90
14771;DHT22;7477;45.222;5.688;2023-04-28T20:22:38;19.10;99.90
14771;DHT22;7477;45.222;5.688;2023-04-28T20:25:58;19.20;99.90
14771;DHT22;7477;45.222;5.688;2023-04-28T20:29:18;19.30;99.90
14771;DHT22;7477;45.222;5.688;2023-04-28T20:32:38;19.60;99.90
14771;DHT22;7477;45.222;5.688;2023-04-28T20:35:57;19.30;99.90
14771;DHT22;7477;45.222;5.688;2023-04-28T20:39:16;18.80;99.90
14771;DHT22;7477;45.222;5.688;2023-04-28T20:42:36;18.70;99.90
14771;DHT22;7477;45.222;5.688;2023-04-28T20:45:55;18.90;99.90
14771;DHT22;7477;45.222;5.688;2023-04-28T20:49:15;18.80;99.90
14771;DHT22;7477;45.222;5.688;2023-04-28T20:52:35;18.80;99.90
14771;DHT22;7477;45.222;5.688;2023-04-28T20:55:54;18.80;99.90
14771;DHT22;7477;45.222;5.688;2023-04-28T20:59:14;18.90;99.90
14771;DHT22;7477;45.222;5.688;2023-04-28T21:02:33;18.70;99.90
14771;DHT22;7477;45.222;5.688;2023-04-28T21:05:52;18.70;99.90
14771;DHT22;7477;45.222;5.688;2023-04-28T21:09:12;18.70;99.90
14771;DHT22;7477;45.222;5.688;2023-04-28T21:12:32;18.60;99.90
14771;DHT22;7477;45.222;5.688;2023-04-28T21:15:52;18.60;99.90
14771;DHT22;7477;45.222;5.688;2023-04-28T21:19:11;18.50;99.90
14771;DHT22;7477;45.222;5.688;2023-04-28T21:22:30;18.40;99.90
14771;DHT22;7477;45.222;5.688;2023-04-28T21:25:49;18.40;99.90
14771;DHT22;7477;45.222;5.688;2023-04-28T21:29:09;18.30;99.90
14771;DHT22;7477;45.222;5.688;2023-04-28T21:32:29;18.00;99.90
14771;DHT22;7477;45.222;5.688;2023-04-28T21:35:49;17.80;99.90
14771;DHT22;7477;45.222;5.688;2023-04-28T21:39:09;17.80;99.90
14771;DHT22;7477;45.222;5.688;2023-04-28T21:42:29;17.90;99.90